createdAt,value
2018-07-04T00:04:06.465Z,1.77
2018-07-04T00:08:20.837Z,2.20
2018-07-04T00:12:35.521Z,2.10
2018-07-04T00:16:50.196Z,1.60
2018-07-04T00:21:04.686Z,1.77
2018-07-04T00:25:19.201Z,1.80
2018-07-04T00:29:33.709Z,2.00
2018-07-04T00:33:48.170Z,1.80
2018-07-04T00:38:02.753Z,1.70
2018-07-04T00:42:17.332Z,1.63
2018-07-04T00:46:31.781Z,1.63
2018-07-04T00:50:46.484Z,1.60
2018-07-04T00:55:01.152Z,1.53
2018-07-04T00:59:15.827Z,1.80
2018-07-04T01:03:30.245Z,1.63
2018-07-04T01:07:44.848Z,1.83
2018-07-04T01:11:59.403Z,1.50
2018-07-04T01:16:14.048Z,1.73
2018-07-04T01:20:33.012Z,1.97
2018-07-04T01:24:47.721Z,1.53
2018-07-04T01:29:02.189Z,1.77
2018-07-04T01:33:16.764Z,1.80
2018-07-04T01:37:31.381Z,2.00
2018-07-04T01:41:46.021Z,1.90
2018-07-04T01:46:00.623Z,1.70
2018-07-04T01:50:15.257Z,1.60
2018-07-04T01:54:29.845Z,1.67
2018-07-04T01:58:44.453Z,1.60
2018-07-04T02:02:59.001Z,1.50
2018-07-04T02:07:07.450Z,1.87
2018-07-04T02:11:22.117Z,1.80
2018-07-04T02:15:36.796Z,2.10
2018-07-04T02:19:51.457Z,1.90
2018-07-04T02:24:05.994Z,1.80
2018-07-04T02:28:20.520Z,2.10
2018-07-04T02:32:35.109Z,1.87
2018-07-04T02:36:49.547Z,1.90
2018-07-04T02:41:04.260Z,1.87
2018-07-04T02:45:18.816Z,2.07
2018-07-04T02:49:33.303Z,2.17
2018-07-04T02:53:47.910Z,2.00
2018-07-04T02:58:02.298Z,2.27
2018-07-04T03:02:17.014Z,2.00
2018-07-04T03:06:31.658Z,2.17
2018-07-04T03:10:46.185Z,2.57
2018-07-04T03:15:00.849Z,2.57
2018-07-04T03:19:09.431Z,2.53
2018-07-04T03:23:24.085Z,2.37
2018-07-04T03:27:38.577Z,2.23
2018-07-04T03:31:53.791Z,2.40
2018-07-04T03:36:08.455Z,2.40
2018-07-04T03:40:23.009Z,2.30
2018-07-04T03:44:37.813Z,2.53
2018-07-04T03:48:52.447Z,2.50
2018-07-04T03:53:06.872Z,3.03
2018-07-04T03:57:21.497Z,2.67
2018-07-04T04:01:36.134Z,2.40
2018-07-04T04:05:50.874Z,2.93
2018-07-04T04:10:05.712Z,2.47
2018-07-04T04:14:20.352Z,2.00
2018-07-04T04:18:34.925Z,1.70
2018-07-04T04:22:49.580Z,1.90
2018-07-04T04:27:04.119Z,1.80
2018-07-04T04:31:18.756Z,1.70
2018-07-04T04:35:33.357Z,1.90
2018-07-04T04:39:47.893Z,1.70
2018-07-04T04:44:02.595Z,1.90
2018-07-04T04:48:17.324Z,2.10
2018-07-04T04:52:31.929Z,2.53
2018-07-04T04:56:46.565Z,2.10
2018-07-04T05:01:01.173Z,2.00
2018-07-04T05:05:15.606Z,2.27
2018-07-04T05:09:30.309Z,2.30
2018-07-04T05:13:45.113Z,2.37
2018-07-04T05:17:53.737Z,2.43
2018-07-04T05:22:08.429Z,2.47
2018-07-04T05:26:23.112Z,2.60
2018-07-04T05:30:37.516Z,3.10
2018-07-04T05:34:52.285Z,2.40
2018-07-04T05:39:06.762Z,1.87
2018-07-04T05:43:21.326Z,2.30
2018-07-04T05:47:36.147Z,2.40
2018-07-04T05:51:50.766Z,2.20
2018-07-04T05:56:05.340Z,2.37
2018-07-04T06:00:19.999Z,2.00
2018-07-04T06:04:34.741Z,2.20
2018-07-04T06:08:49.511Z,1.97
2018-07-04T06:12:58.011Z,1.97
2018-07-04T06:17:12.673Z,2.13
2018-07-04T06:21:27.388Z,1.83
2018-07-04T06:25:42.521Z,2.17
2018-07-04T06:29:57.016Z,2.47
2018-07-04T06:34:11.804Z,2.00
2018-07-04T06:38:14.264Z,2.12
2018-07-04T06:42:16.472Z,2.25
2018-07-04T06:46:18.921Z,2.08
2018-07-04T06:50:21.135Z,2.05
2018-07-04T06:54:23.605Z,2.15
2018-07-04T06:58:25.804Z,1.90
2018-07-04T07:02:28.253Z,2.22
2018-07-04T07:06:42.944Z,2.30
2018-07-04T07:10:57.562Z,2.10
2018-07-04T07:15:12.408Z,2.20
2018-07-04T07:19:20.948Z,2.10
2018-07-04T07:23:35.594Z,2.20
2018-07-04T07:27:50.201Z,1.87
2018-07-04T07:32:04.875Z,2.37
2018-07-04T07:36:19.517Z,1.85
2018-07-04T07:40:34.050Z,1.80
2018-07-04T07:44:48.674Z,2.45
2018-07-04T07:48:57.360Z,1.92
2018-07-04T07:53:11.937Z,2.00
2018-07-04T07:57:26.656Z,2.12
2018-07-04T08:01:41.236Z,2.00
2018-07-04T08:05:55.963Z,1.87
2018-07-04T08:10:10.437Z,1.90
2018-07-04T08:14:24.989Z,1.77
2018-07-04T08:18:39.754Z,1.90
2018-07-04T08:22:54.365Z,1.90
2018-07-04T08:27:09.078Z,2.12
2018-07-04T08:31:23.749Z,2.02
2018-07-04T08:35:38.339Z,1.95
2018-07-04T08:39:52.981Z,1.57
2018-07-04T08:44:07.765Z,1.80
2018-07-04T08:48:22.436Z,2.08
2018-07-04T08:52:37.218Z,1.72
2018-07-04T08:56:51.877Z,2.17
2018-07-04T09:01:06.440Z,1.70
2018-07-04T09:05:21.022Z,2.33
2018-07-04T09:09:35.732Z,2.15
2018-07-04T09:13:50.423Z,2.35
2018-07-04T09:18:04.985Z,2.22
2018-07-04T09:22:19.649Z,4.35
2018-07-04T09:26:34.197Z,2.85
2018-07-04T09:30:48.863Z,3.12
2018-07-04T09:35:03.585Z,2.50
2018-07-04T09:39:12.060Z,3.37
2018-07-04T09:43:26.544Z,3.72
2018-07-04T09:47:41.134Z,4.08
2018-07-04T09:51:55.636Z,4.83
2018-07-04T09:56:10.370Z,4.22
2018-07-04T10:00:28.620Z,3.52
2018-07-04T10:04:43.113Z,3.77
2018-07-04T10:08:57.703Z,3.62
2018-07-04T10:13:12.336Z,3.75
2018-07-04T10:17:27.090Z,3.95
2018-07-04T10:21:41.480Z,3.55
2018-07-04T10:25:56.059Z,4.70
2018-07-04T10:30:10.480Z,5.17
2018-07-04T10:34:25.207Z,5.03
2018-07-04T10:38:39.975Z,4.75
2018-07-04T10:42:54.574Z,4.70
2018-07-04T10:47:09.366Z,4.20
2018-07-04T10:51:23.853Z,4.12
2018-07-04T10:55:38.342Z,3.83
2018-07-04T10:59:53.241Z,3.70
2018-07-04T11:04:07.733Z,3.25
2018-07-04T11:08:22.373Z,3.60
2018-07-04T11:12:37.041Z,3.47
2018-07-04T11:16:51.713Z,3.83
2018-07-04T11:21:06.276Z,3.77
2018-07-04T11:25:20.837Z,3.42
2018-07-04T11:29:35.556Z,3.87
2018-07-04T11:33:50.228Z,3.70
2018-07-04T11:38:04.766Z,3.80
2018-07-04T11:42:19.500Z,3.33
2018-07-04T11:46:21.697Z,3.12
2018-07-04T11:50:23.914Z,3.02
2018-07-04T11:54:26.113Z,2.80
2018-07-04T11:58:28.304Z,3.37
2018-07-04T12:02:30.509Z,3.42
2018-07-04T12:06:45.049Z,3.42
2018-07-04T12:10:47.729Z,3.87
2018-07-04T12:14:49.888Z,3.42
2018-07-04T12:18:52.071Z,3.77
2018-07-04T12:22:54.532Z,4.55
2018-07-04T12:26:56.788Z,4.35
2018-07-04T12:30:58.932Z,3.67
2018-07-04T12:35:01.126Z,3.25
2018-07-04T12:39:04.591Z,3.25
2018-07-04T12:43:06.785Z,3.30
2018-07-04T12:47:09.019Z,3.83
2018-07-04T12:51:11.227Z,3.90
2018-07-04T12:55:30.061Z,3.67
2018-07-04T12:59:44.641Z,3.40
2018-07-04T13:03:59.305Z,4.20
2018-07-04T13:08:13.990Z,3.60
2018-07-04T13:12:28.608Z,4.35
2018-07-04T13:16:37.291Z,3.70
2018-07-04T13:20:52.112Z,3.75
2018-07-04T13:25:06.750Z,3.37
2018-07-04T13:29:21.221Z,3.83
2018-07-04T13:33:36.016Z,3.50
2018-07-04T13:37:50.597Z,3.65
2018-07-04T13:42:05.257Z,5.10
2018-07-04T13:46:19.912Z,3.70
2018-07-04T13:50:34.588Z,3.60
2018-07-04T13:54:49.043Z,3.30
2018-07-04T13:59:04.137Z,3.83
2018-07-04T14:03:18.855Z,3.40
2018-07-04T14:07:33.365Z,3.33
2018-07-04T14:11:48.045Z,3.62
2018-07-04T14:16:02.503Z,3.22
2018-07-04T14:20:17.170Z,3.22
2018-07-04T14:24:31.830Z,3.30
2018-07-04T14:28:46.517Z,3.35
2018-07-04T14:33:01.093Z,3.12
2018-07-04T14:37:15.843Z,3.60
2018-07-04T14:41:30.445Z,3.30
2018-07-04T14:45:44.959Z,3.27
2018-07-04T14:49:59.589Z,3.20
2018-07-04T14:54:14.009Z,3.05
2018-07-04T14:58:28.633Z,3.00
2018-07-04T15:02:43.217Z,3.40
2018-07-04T15:06:57.936Z,3.00
2018-07-04T15:11:12.644Z,3.20
2018-07-04T15:15:27.280Z,3.20
2018-07-04T15:19:41.868Z,3.00
2018-07-04T15:23:56.482Z,3.22
2018-07-04T15:28:05.162Z,3.08
2018-07-04T15:32:19.809Z,3.37
2018-07-04T15:36:34.370Z,3.50
2018-07-04T15:40:48.921Z,3.95
2018-07-04T15:45:03.593Z,3.20
2018-07-04T15:49:18.966Z,3.00
2018-07-04T15:53:33.632Z,2.90
2018-07-04T15:57:48.265Z,3.30
2018-07-04T16:02:02.797Z,2.65
2018-07-04T16:06:11.467Z,3.10
2018-07-04T16:10:26.133Z,3.10
2018-07-04T16:14:40.848Z,3.45
2018-07-04T16:18:55.405Z,3.40
2018-07-04T16:23:10.189Z,3.40
2018-07-04T16:27:24.973Z,3.10
2018-07-04T16:31:39.589Z,3.10
2018-07-04T16:35:54.232Z,3.05
2018-07-04T16:40:08.765Z,2.90
2018-07-04T16:44:23.358Z,3.20
2018-07-04T16:48:38.961Z,3.00
2018-07-04T16:52:53.626Z,3.50
2018-07-04T16:57:08.380Z,3.47
2018-07-04T17:01:23.749Z,3.40
2018-07-04T17:05:38.498Z,3.45
2018-07-04T17:09:53.160Z,3.30
2018-07-04T17:14:07.740Z,3.72
2018-07-04T17:18:16.551Z,3.08
2018-07-04T17:22:31.221Z,3.50
2018-07-04T17:26:46.436Z,3.65
2018-07-04T17:31:01.178Z,3.87
2018-07-04T17:35:09.784Z,4.20
2018-07-04T17:39:24.662Z,4.12
2018-07-04T17:43:39.161Z,4.40
2018-07-04T17:47:53.859Z,4.35
2018-07-04T17:52:08.617Z,3.60
2018-07-04T17:56:17.155Z,4.25
2018-07-04T18:00:31.692Z,3.75
2018-07-04T18:04:46.645Z,4.12
2018-07-04T18:09:01.445Z,4.05
2018-07-04T18:13:16.091Z,5.00
2018-07-04T18:17:30.803Z,4.05
2018-07-04T18:21:45.425Z,3.90
2018-07-04T18:26:00.094Z,4.10
2018-07-04T18:30:15.626Z,4.70
2018-07-04T18:34:30.311Z,3.98
2018-07-04T18:38:44.943Z,3.87
2018-07-04T18:42:59.867Z,3.98
2018-07-04T18:47:14.382Z,4.50
2018-07-04T18:51:29.027Z,3.40
2018-07-04T18:55:43.779Z,4.08
2018-07-04T18:59:58.435Z,3.67
2018-07-04T19:04:13.496Z,3.87
2018-07-04T19:08:28.246Z,4.35
2018-07-04T19:12:44.299Z,3.95
2018-07-04T19:16:52.857Z,4.15
2018-07-04T19:21:08.055Z,4.47
2018-07-04T19:25:22.731Z,4.30
2018-07-04T19:29:37.285Z,4.33
2018-07-04T19:33:52.276Z,4.22
2018-07-04T19:38:06.877Z,4.40
2018-07-04T19:42:22.216Z,5.85
2018-07-04T19:46:36.677Z,4.40
2018-07-04T19:50:51.392Z,4.25
2018-07-04T19:55:06.288Z,4.15
2018-07-04T19:59:20.770Z,4.03
2018-07-04T20:03:35.433Z,4.33
2018-07-04T20:07:50.149Z,4.42
2018-07-04T20:12:04.947Z,4.50
2018-07-04T20:16:19.640Z,4.33
2018-07-04T20:20:34.127Z,4.87
2018-07-04T20:24:49.458Z,4.40
2018-07-04T20:28:58.409Z,5.12
2018-07-04T20:33:06.960Z,4.58
2018-07-04T20:37:21.860Z,4.80
2018-07-04T20:41:36.453Z,4.85
2018-07-04T20:45:45.081Z,4.87
2018-07-04T20:50:00.054Z,4.00
2018-07-04T20:54:14.593Z,4.22
2018-07-04T20:58:29.301Z,4.55
2018-07-04T21:02:44.312Z,4.20
2018-07-04T21:06:59.369Z,3.87
2018-07-04T21:11:16.789Z,4.55
2018-07-04T21:15:31.385Z,4.35
2018-07-04T21:19:46.016Z,4.78
2018-07-04T21:24:01.165Z,4.70
2018-07-04T21:28:15.849Z,5.28
2018-07-04T21:32:31.432Z,4.80
2018-07-04T21:36:46.041Z,4.60
2018-07-04T21:41:00.777Z,4.90
2018-07-04T21:45:15.473Z,4.93
2018-07-04T21:49:30.169Z,4.30
2018-07-04T21:53:45.028Z,4.53
2018-07-04T21:57:59.671Z,5.10
2018-07-04T22:02:14.634Z,4.40
2018-07-04T22:06:23.287Z,4.83
2018-07-04T22:10:38.188Z,4.50
2018-07-04T22:14:52.780Z,4.60
2018-07-04T22:19:07.630Z,4.33
2018-07-04T22:23:22.110Z,4.87
2018-07-04T22:27:37.683Z,4.10
2018-07-04T22:31:52.319Z,4.07
2018-07-04T22:36:00.996Z,4.20
2018-07-04T22:40:15.625Z,4.60
2018-07-04T22:44:30.253Z,4.30
2018-07-04T22:48:44.796Z,4.10
2018-07-04T22:52:59.284Z,3.97
2018-07-04T22:57:13.917Z,4.37
2018-07-04T23:01:28.550Z,4.40
2018-07-04T23:05:43.268Z,4.13
2018-07-04T23:09:58.003Z,4.77
2018-07-04T23:14:12.529Z,4.50
2018-07-04T23:18:27.264Z,4.40
2018-07-04T23:22:41.849Z,4.43
2018-07-04T23:26:56.579Z,4.53
2018-07-04T23:31:11.357Z,4.77
2018-07-04T23:35:25.918Z,4.80
2018-07-04T23:39:40.637Z,4.47
2018-07-04T23:43:55.476Z,5.23
2018-07-04T23:48:10.142Z,5.17
2018-07-04T23:52:24.921Z,4.70
2018-07-04T23:56:39.624Z,4.57
